Time;durP1;ratioP1;P1;durP2;ratioP2;P2;SDS_P1;SDS_P2;PMS_P1;PMS_P2;Temp;Humidity;BMP_temperature;BMP_pressure;BME280_temperature;BME280_humidity;BME280_pressure;Samples;Min_cycle;Max_cycle;Signal;HPM_P1;HPM_P2
2023/07/14 00:00:28;;;;;;;4.72;1.83;;;;;;;;;;5081011;28;20117;-78
2023/07/14 00:02:55;;;;;;;7.30;2.25;;;;;;;;;;5081372;28;20131;-78
2023/07/14 00:05:28;;;;;;;5.78;1.80;;;;;;;;;;5081564;28;20052;-78
2023/07/14 00:07:56;;;;;;;3.10;1.60;;;;;;;;;;5081114;28;20040;-80
2023/07/14 00:10:30;;;;;;;4.40;1.58;;;;;;;;;;5081005;28;20102;-79
2023/07/14 00:13:02;;;;;;;3.65;1.98;;;;;;;;;;5068531;28;20037;-80
2023/07/14 00:15:30;;;;;;;3.53;1.70;;;;;;;;;;5066386;28;20059;-78
2023/07/14 00:18:18;;;;;;;5.03;1.58;;;;;;;;;;5078944;28;20036;-81
2023/07/14 00:20:45;;;;;;;4.28;1.80;;;;;;;;;;5078701;28;20040;-80
2023/07/14 00:23:12;;;;;;;3.58;1.65;;;;;;;;;;5080112;28;20116;-79
2023/07/14 00:25:39;;;;;;;3.78;1.63;;;;;;;;;;5077639;28;20131;-79
2023/07/14 00:28:16;;;;;;;5.13;1.83;;;;;;;;;;5077911;28;20102;-79
2023/07/14 00:30:43;;;;;;;4.15;2.17;;;;;;;;;;5058126;28;20041;-79
2023/07/14 00:33:15;;;;;;;4.07;2.40;;;;;;;;;;5073995;28;20079;-80
2023/07/14 00:35:42;;;;;;;3.95;1.80;;;;;;;;;;5073427;28;20127;-79
2023/07/14 00:38:09;;;;;;;6.38;1.58;;;;;;;;;;5074445;28;20045;-79
2023/07/14 00:40:42;;;;;;;5.43;2.00;;;;;;;;;;5059555;28;20496;-80
2023/07/14 00:43:18;;;;;;;3.55;1.83;;;;;;;;;;5061129;28;20052;-77
2023/07/14 00:45:49;;;;;;;4.35;1.70;;;;;;;;;;5060685;28;20060;-77
2023/07/14 00:48:18;;;;;;;7.53;2.00;;;;;;;;;;5061397;28;20086;-79
2023/07/14 00:50:45;;;;;;;4.32;1.70;;;;;;;;;;5043079;28;20045;-76
2023/07/14 00:53:17;;;;;;;4.68;2.22;;;;;;;;;;5029792;28;20129;-80
2023/07/14 00:55:54;;;;;;;4.00;1.80;;;;;;;;;;5059460;28;20053;-79
2023/07/14 00:58:25;;;;;;;7.97;2.25;;;;;;;;;;5044015;28;20052;-79
2023/07/14 01:01:11;;;;;;;5.93;2.10;;;;;;;;;;5059100;28;20100;-80
2023/07/14 01:03:40;;;;;;;7.97;2.47;;;;;;;;;;5034404;28;20052;-79
2023/07/14 01:06:24;;;;;;;7.70;2.20;;;;;;;;;;5032605;28;20101;-79
2023/07/14 01:08:59;;;;;;;4.40;1.83;;;;;;;;;;5052280;28;20125;-80
2023/07/14 01:11:35;;;;;;;6.72;1.90;;;;;;;;;;5051961;28;20063;-79
2023/07/14 01:14:06;;;;;;;3.60;1.73;;;;;;;;;;5036698;28;20561;-78
2023/07/14 01:16:35;;;;;;;3.13;1.60;;;;;;;;;;5036431;28;20156;-78
2023/07/14 01:19:06;;;;;;;6.60;1.77;;;;;;;;;;5034008;28;20037;-76
2023/07/14 01:21:33;;;;;;;3.63;1.70;;;;;;;;;;5056134;28;20049;-78
2023/07/14 01:24:17;;;;;;;4.20;1.80;;;;;;;;;;5038321;28;20128;-76
2023/07/14 01:26:50;;;;;;;2.90;1.67;;;;;;;;;;5056766;28;20053;-79
2023/07/14 01:29:17;;;;;;;2.80;1.50;;;;;;;;;;5057942;28;20045;-78
2023/07/14 01:31:44;;;;;;;4.82;1.83;;;;;;;;;;5057729;28;20056;-79
2023/07/14 01:34:11;;;;;;;5.55;1.92;;;;;;;;;;5058706;28;20063;-78
2023/07/14 01:36:39;;;;;;;8.00;1.80;;;;;;;;;;5055310;28;20534;-79
2023/07/14 01:39:06;;;;;;;2.75;1.63;;;;;;;;;;5071458;28;20052;-79
2023/07/14 01:41:33;;;;;;;4.65;1.67;;;;;;;;;;5077585;28;20060;-80
2023/07/14 01:44:03;;;;;;;3.22;2.00;;;;;;;;;;5072671;28;20703;-78
2023/07/14 01:46:30;;;;;;;4.28;2.05;;;;;;;;;;5073673;28;20044;-78
2023/07/14 01:48:57;;;;;;;2.75;1.80;;;;;;;;;;5074794;28;20040;-79
2023/07/14 01:51:25;;;;;;;6.47;2.20;;;;;;;;;;5086790;28;20105;-79
2023/07/14 01:53:58;;;;;;;4.13;1.83;;;;;;;;;;5081783;28;20040;-78
2023/07/14 01:56:26;;;;;;;4.70;2.15;;;;;;;;;;5078304;28;20490;-77
2023/07/14 01:58:59;;;;;;;8.43;2.20;;;;;;;;;;5080166;28;20076;-79
2023/07/14 02:01:27;;;;;;;5.10;2.00;;;;;;;;;;5063419;28;20057;-79
2023/07/14 02:04:04;;;;;;;3.67;2.08;;;;;;;;;;5079577;28;20056;-79
2023/07/14 02:06:32;;;;;;;5.47;2.20;;;;;;;;;;5080388;28;20078;-79
2023/07/14 02:08:59;;;;;;;5.13;2.08;;;;;;;;;;5078708;28;20044;-79
2023/07/14 02:11:27;;;;;;;5.18;2.10;;;;;;;;;;5076007;28;20060;-80
2023/07/14 02:13:55;;;;;;;5.57;2.10;;;;;;;;;;5081524;28;20036;-78
2023/07/14 02:16:23;;;;;;;3.00;2.00;;;;;;;;;;5081285;28;20063;-78
2023/07/14 02:18:50;;;;;;;6.68;2.05;;;;;;;;;;5079165;28;20044;-80
2023/07/14 02:21:21;;;;;;;4.22;2.28;;;;;;;;;;5081053;28;20040;-79
2023/07/14 02:23:48;;;;;;;4.07;2.15;;;;;;;;;;5067409;28;20052;-78
2023/07/14 02:26:31;;;;;;;6.43;2.33;;;;;;;;;;5076039;28;20064;-79
2023/07/14 02:28:58;;;;;;;4.65;2.20;;;;;;;;;;5081066;28;20037;-78
2023/07/14 02:31:29;;;;;;;6.30;2.35;;;;;;;;;;5080984;28;20094;-79
2023/07/14 02:33:56;;;;;;;4.82;2.30;;;;;;;;;;5080445;28;20033;-79
2023/07/14 02:36:31;;;;;;;6.28;2.17;;;;;;;;;;5062168;28;20100;-79
2023/07/14 02:38:57;;;;;;;3.58;2.30;;;;;;;;;;5068764;28;20049;-79
2023/07/14 02:41:29;;;;;;;3.67;2.42;;;;;;;;;;5062946;28;20049;-79
2023/07/14 02:44:01;;;;;;;4.07;2.25;;;;;;;;;;5062170;28;20200;-79
2023/07/14 02:46:49;;;;;;;4.45;2.53;;;;;;;;;;5059726;28;20545;-80
2023/07/14 02:49:16;;;;;;;4.25;2.60;;;;;;;;;;5059638;28;20049;-79
2023/07/14 02:51:43;;;;;;;3.95;2.08;;;;;;;;;;5062614;28;20056;-79
2023/07/14 02:54:09;;;;;;;4.88;2.45;;;;;;;;;;5059669;28;20148;-78
2023/07/14 02:56:36;;;;;;;4.03;2.22;;;;;;;;;;5062287;28;20044;-78
2023/07/14 02:59:03;;;;;;;3.63;2.35;;;;;;;;;;5061717;28;20112;-80
2023/07/14 03:01:32;;;;;;;6.47;2.47;;;;;;;;;;5063882;28;20053;-79
2023/07/14 03:03:59;;;;;;;6.35;2.30;;;;;;;;;;5045673;28;20041;-80
2023/07/14 03:06:27;;;;;;;7.63;2.10;;;;;;;;;;5064687;28;20056;-78
2023/07/14 03:08:54;;;;;;;4.53;2.40;;;;;;;;;;5060339;28;20048;-80
2023/07/14 03:11:21;;;;;;;8.52;2.67;;;;;;;;;;5059307;28;20132;-77
2023/07/14 03:13:47;;;;;;;5.90;2.40;;;;;;;;;;5062368;28;20060;-79
2023/07/14 03:16:15;;;;;;;5.53;2.47;;;;;;;;;;5059798;28;20112;-79
2023/07/14 03:18:41;;;;;;;4.25;2.53;;;;;;;;;;5056685;28;20064;-79
2023/07/14 03:21:08;;;;;;;3.83;2.60;;;;;;;;;;5057753;28;20104;-79
2023/07/14 03:23:35;;;;;;;5.78;2.33;;;;;;;;;;5059078;28;20041;-79
2023/07/14 03:26:03;;;;;;;4.40;2.08;;;;;;;;;;5057212;28;20041;-79
2023/07/14 03:28:30;;;;;;;5.97;2.42;;;;;;;;;;5041922;28;20047;-80
2023/07/14 03:30:56;;;;;;;5.60;2.20;;;;;;;;;;5057435;28;20048;-79
2023/07/14 03:33:23;;;;;;;5.22;2.15;;;;;;;;;;5057444;28;20075;-79
2023/07/14 03:35:53;;;;;;;5.10;2.42;;;;;;;;;;5058029;28;20148;-79
2023/07/14 03:38:23;;;;;;;3.33;2.13;;;;;;;;;;5065012;28;20067;-79
2023/07/14 03:40:50;;;;;;;4.47;2.38;;;;;;;;;;5073260;28;20036;-78
2023/07/14 03:43:16;;;;;;;4.57;2.67;;;;;;;;;;5055511;28;20044;-79
2023/07/14 03:45:43;;;;;;;5.05;2.40;;;;;;;;;;5072755;28;20136;-79
2023/07/14 03:48:10;;;;;;;4.25;2.03;;;;;;;;;;5074139;28;20051;-77
2023/07/14 03:50:37;;;;;;;5.18;2.28;;;;;;;;;;5076855;28;20040;-81
2023/07/14 03:53:07;;;;;;;4.90;2.35;;;;;;;;;;5079859;28;20045;-80
2023/07/14 03:55:34;;;;;;;4.03;2.33;;;;;;;;;;5076455;28;20044;-79
2023/07/14 03:58:01;;;;;;;6.35;2.55;;;;;;;;;;5077421;28;20106;-81
2023/07/14 04:00:31;;;;;;;4.65;2.60;;;;;;;;;;5076373;28;20074;-79
2023/07/14 04:02:58;;;;;;;9.43;2.55;;;;;;;;;;5073061;28;20052;-79
2023/07/14 04:05:25;;;;;;;7.63;2.70;;;;;;;;;;5078200;28;20192;-79
2023/07/14 04:07:56;;;;;;;6.72;2.40;;;;;;;;;;5077317;28;20040;-79
2023/07/14 04:10:23;;;;;;;4.07;2.45;;;;;;;;;;5079635;28;20060;-79
2023/07/14 04:12:49;;;;;;;5.95;2.95;;;;;;;;;;5078764;28;20102;-81
2023/07/14 04:15:17;;;;;;;3.97;2.42;;;;;;;;;;5076819;28;20220;-79
2023/07/14 04:17:44;;;;;;;4.85;2.50;;;;;;;;;;5078797;28;20071;-79
2023/07/14 04:20:10;;;;;;;7.03;2.55;;;;;;;;;;5079021;28;20048;-81
2023/07/14 04:22:37;;;;;;;4.30;2.85;;;;;;;;;;5080669;28;20115;-81
2023/07/14 04:25:04;;;;;;;8.65;2.85;;;;;;;;;;5078958;28;20100;-81
2023/07/14 04:27:33;;;;;;;6.22;2.63;;;;;;;;;;5079649;28;20045;-80
2023/07/14 04:30:00;;;;;;;5.78;2.47;;;;;;;;;;5080089;28;20044;-80
2023/07/14 04:32:27;;;;;;;7.13;2.45;;;;;;;;;;5078456;28;20036;-78
2023/07/14 04:34:54;;;;;;;5.18;2.60;;;;;;;;;;5080397;28;20104;-80
2023/07/14 04:37:20;;;;;;;5.93;2.90;;;;;;;;;;5078291;28;20059;-79
2023/07/14 04:39:47;;;;;;;9.52;2.90;;;;;;;;;;5059381;28;20063;-80
2023/07/14 04:42:14;;;;;;;8.38;2.67;;;;;;;;;;5060596;28;20045;-80
2023/07/14 04:44:40;;;;;;;8.25;2.70;;;;;;;;;;5061954;28;20053;-79
2023/07/14 04:47:08;;;;;;;5.88;2.70;;;;;;;;;;5060616;28;20447;-78
2023/07/14 04:49:35;;;;;;;5.07;2.95;;;;;;;;;;5059951;28;20502;-80
2023/07/14 04:52:01;;;;;;;7.50;2.90;;;;;;;;;;5058570;28;20396;-80
2023/07/14 04:54:28;;;;;;;7.32;3.45;;;;;;;;;;5059135;28;20074;-80
2023/07/14 04:56:55;;;;;;;8.43;3.47;;;;;;;;;;5059664;28;20052;-80
2023/07/14 04:59:22;;;;;;;8.05;3.13;;;;;;;;;;5060539;28;20134;-78
2023/07/14 05:01:48;;;;;;;7.18;3.30;;;;;;;;;;5059831;28;20090;-78
2023/07/14 05:04:15;;;;;;;6.80;3.00;;;;;;;;;;5060312;28;20071;-79
2023/07/14 05:06:42;;;;;;;6.15;2.78;;;;;;;;;;5059210;28;20216;-79
2023/07/14 05:09:09;;;;;;;5.32;2.78;;;;;;;;;;5059855;28;20044;-79
2023/07/14 05:11:35;;;;;;;4.25;2.88;;;;;;;;;;5061173;28;20072;-79
2023/07/14 05:14:04;;;;;;;10.02;3.15;;;;;;;;;;5065613;28;20057;-78
2023/07/14 05:16:31;;;;;;;5.18;3.00;;;;;;;;;;5070593;28;20063;-80
2023/07/14 05:18:57;;;;;;;8.75;3.25;;;;;;;;;;5063667;28;20037;-79
2023/07/14 05:21:24;;;;;;;5.28;2.40;;;;;;;;;;5057491;28;20041;-79
2023/07/14 05:23:51;;;;;;;6.70;3.28;;;;;;;;;;5056569;28;20075;-80
2023/07/14 05:26:18;;;;;;;7.40;3.03;;;;;;;;;;5057704;28;20056;-80
2023/07/14 05:28:45;;;;;;;9.27;4.65;;;;;;;;;;5060247;28;20171;-79
2023/07/14 05:31:12;;;;;;;10.30;3.00;;;;;;;;;;5059529;28;20044;-79
2023/07/14 05:33:39;;;;;;;7.97;3.08;;;;;;;;;;5058180;28;20041;-80
2023/07/14 05:36:06;;;;;;;5.78;3.00;;;;;;;;;;5057312;28;20483;-80
2023/07/14 05:38:32;;;;;;;5.85;3.05;;;;;;;;;;5068147;28;20072;-80
2023/07/14 05:40:59;;;;;;;4.32;2.70;;;;;;;;;;5079248;28;20053;-79
2023/07/14 05:43:26;;;;;;;6.10;2.65;;;;;;;;;;5080517;28;20048;-79
2023/07/14 05:45:53;;;;;;;6.95;2.65;;;;;;;;;;5077415;28;20049;-80
2023/07/14 05:48:20;;;;;;;5.60;2.97;;;;;;;;;;5076647;28;20052;-79
2023/07/14 05:50:47;;;;;;;6.03;3.30;;;;;;;;;;5079472;28;20071;-81
2023/07/14 05:53:14;;;;;;;6.65;2.95;;;;;;;;;;5082526;28;20041;-81
2023/07/14 05:55:41;;;;;;;6.10;2.70;;;;;;;;;;5080101;28;20048;-80
2023/07/14 05:58:07;;;;;;;5.50;2.50;;;;;;;;;;5079654;28;20045;-79
2023/07/14 06:00:38;;;;;;;6.85;2.25;;;;;;;;;;5075641;28;20107;-79
2023/07/14 06:03:06;;;;;;;6.72;2.58;;;;;;;;;;5079294;28;20101;-80
2023/07/14 06:05:34;;;;;;;5.70;2.15;;;;;;;;;;5082946;28;20048;-78
2023/07/14 06:08:01;;;;;;;9.82;2.75;;;;;;;;;;5081130;28;20111;-80
2023/07/14 06:10:28;;;;;;;6.30;2.47;;;;;;;;;;5080930;28;20515;-79
2023/07/14 06:12:55;;;;;;;5.43;1.90;;;;;;;;;;5081118;28;20070;-79
2023/07/14 06:15:22;;;;;;;8.43;2.53;;;;;;;;;;5080967;28;20048;-80
2023/07/14 06:17:48;;;;;;;4.60;2.25;;;;;;;;;;5077657;28;20055;-79
2023/07/14 06:20:15;;;;;;;6.22;2.00;;;;;;;;;;5078480;28;20059;-81
2023/07/14 06:22:42;;;;;;;6.55;1.95;;;;;;;;;;5062473;28;20425;-78
2023/07/14 06:25:09;;;;;;;3.75;1.63;;;;;;;;;;5081617;28;20063;-81
2023/07/14 06:27:35;;;;;;;4.38;1.60;;;;;;;;;;5082088;28;20052;-79
2023/07/14 06:30:04;;;;;;;5.80;2.03;;;;;;;;;;5081681;28;20044;-79
2023/07/14 06:32:30;;;;;;;4.72;2.03;;;;;;;;;;5062123;28;20053;-80
2023/07/14 06:34:57;;;;;;;3.60;2.22;;;;;;;;;;5081422;28;20059;-79
2023/07/14 06:37:25;;;;;;;4.60;1.98;;;;;;;;;;5079993;28;20056;-80
2023/07/14 06:39:51;;;;;;;4.30;1.73;;;;;;;;;;5061316;28;20290;-80
2023/07/14 06:42:18;;;;;;;5.18;1.98;;;;;;;;;;5059328;28;20049;-80
2023/07/14 06:44:45;;;;;;;4.57;1.80;;;;;;;;;;5060819;28;20056;-80
2023/07/14 06:47:13;;;;;;;5.65;1.80;;;;;;;;;;5059708;28;20049;-80
2023/07/14 06:49:40;;;;;;;5.25;1.98;;;;;;;;;;5059448;28;20053;-81
2023/07/14 06:52:07;;;;;;;5.45;2.00;;;;;;;;;;5058523;28;20044;-80
2023/07/14 06:54:34;;;;;;;7.28;2.08;;;;;;;;;;5058580;28;20045;-81
2023/07/14 06:57:02;;;;;;;4.82;1.73;;;;;;;;;;5058036;28;20041;-79
2023/07/14 06:59:28;;;;;;;8.88;1.75;;;;;;;;;;5053481;28;20086;-80
2023/07/14 07:01:55;;;;;;;4.50;1.48;;;;;;;;;;5060430;28;20033;-80
2023/07/14 07:04:22;;;;;;;5.30;1.65;;;;;;;;;;5062365;28;20056;-81
2023/07/14 07:06:48;;;;;;;4.55;1.50;;;;;;;;;;5059406;28;20059;-79
2023/07/14 07:09:15;;;;;;;3.17;1.50;;;;;;;;;;5059959;28;20033;-80
2023/07/14 07:11:42;;;;;;;6.63;1.80;;;;;;;;;;5052660;28;20075;-79
2023/07/14 07:14:08;;;;;;;4.70;1.70;;;;;;;;;;5050727;28;20135;-80
2023/07/14 07:16:36;;;;;;;4.13;1.50;;;;;;;;;;5051041;28;20075;-80
2023/07/14 07:19:03;;;;;;;2.00;1.20;;;;;;;;;;5050125;28;20129;-80
2023/07/14 07:21:29;;;;;;;5.63;1.48;;;;;;;;;;5054099;28;20037;-79
2023/07/14 07:23:56;;;;;;;3.38;1.40;;;;;;;;;;5054598;28;20056;-82
2023/07/14 07:26:23;;;;;;;3.50;1.35;;;;;;;;;;5056000;28;20064;-80
2023/07/14 07:28:49;;;;;;;6.47;1.40;;;;;;;;;;5055749;28;20064;-79
2023/07/14 07:31:16;;;;;;;4.28;1.25;;;;;;;;;;5055430;28;20041;-79
2023/07/14 07:33:42;;;;;;;4.35;1.20;;;;;;;;;;5056389;28;20126;-79
2023/07/14 07:36:15;;;;;;;2.78;1.15;;;;;;;;;;5053875;28;20045;-81
2023/07/14 07:38:42;;;;;;;3.85;1.23;;;;;;;;;;5057721;28;20065;-80
2023/07/14 07:41:09;;;;;;;3.15;1.40;;;;;;;;;;5055351;28;20048;-79
2023/07/14 07:43:36;;;;;;;4.97;1.30;;;;;;;;;;5055054;28;20114;-82
2023/07/14 07:46:03;;;;;;;2.33;0.98;;;;;;;;;;5056872;28;20049;-80
2023/07/14 07:48:30;;;;;;;3.88;1.30;;;;;;;;;;5056155;28;20423;-81
2023/07/14 07:50:57;;;;;;;6.20;1.40;;;;;;;;;;5056885;28;20055;-81
2023/07/14 07:53:23;;;;;;;3.35;1.08;;;;;;;;;;5056539;28;20045;-80
2023/07/14 07:55:52;;;;;;;6.13;1.15;;;;;;;;;;5056861;28;20048;-81
2023/07/14 07:58:18;;;;;;;3.40;1.10;;;;;;;;;;5057920;28;20645;-82
2023/07/14 08:00:45;;;;;;;3.03;1.20;;;;;;;;;;5057117;28;20503;-81
2023/07/14 08:03:11;;;;;;;2.25;0.90;;;;;;;;;;5058063;28;20082;-80
2023/07/14 08:05:38;;;;;;;2.58;1.13;;;;;;;;;;5058058;28;20049;-81
2023/07/14 08:08:05;;;;;;;2.47;1.10;;;;;;;;;;5056824;28;20352;-78
2023/07/14 08:10:32;;;;;;;2.03;1.10;;;;;;;;;;5055830;28;20049;-79
2023/07/14 08:12:59;;;;;;;2.72;1.00;;;;;;;;;;5056697;28;20098;-80
2023/07/14 08:15:25;;;;;;;1.80;0.90;;;;;;;;;;5058345;28;20049;-81
2023/07/14 08:17:54;;;;;;;2.05;1.00;;;;;;;;;;5057813;28;20040;-81
2023/07/14 08:20:20;;;;;;;3.90;1.13;;;;;;;;;;5052704;28;20101;-82
2023/07/14 08:22:47;;;;;;;2.20;1.08;;;;;;;;;;5057213;28;20366;-81
2023/07/14 08:25:14;;;;;;;3.10;1.10;;;;;;;;;;5056147;28;20425;-80
2023/07/14 08:27:40;;;;;;;3.45;1.25;;;;;;;;;;5055301;28;20456;-79
2023/07/14 08:30:08;;;;;;;4.43;1.00;;;;;;;;;;5055708;28;20049;-83
2023/07/14 08:32:35;;;;;;;1.23;0.70;;;;;;;;;;5060521;28;20041;-80
2023/07/14 08:35:02;;;;;;;4.32;0.75;;;;;;;;;;5058108;28;20152;-80
2023/07/14 08:37:29;;;;;;;2.05;1.00;;;;;;;;;;5052708;28;20049;-79
2023/07/14 08:39:56;;;;;;;1.75;0.80;;;;;;;;;;5072907;28;20275;-82
2023/07/14 08:42:25;;;;;;;2.33;0.98;;;;;;;;;;5074586;28;20049;-80
2023/07/14 08:44:58;;;;;;;2.08;1.00;;;;;;;;;;5075508;28;20060;-79
2023/07/14 08:47:43;;;;;;;2.17;0.93;;;;;;;;;;5075790;28;20074;-79
2023/07/14 08:50:18;;;;;;;2.35;0.93;;;;;;;;;;5079205;28;20097;-79
2023/07/14 08:52:45;;;;;;;1.80;0.90;;;;;;;;;;5080681;28;20033;-79
2023/07/14 08:55:17;;;;;;;2.95;0.93;;;;;;;;;;5088073;28;20298;-81
2023/07/14 08:57:46;;;;;;;3.90;1.20;;;;;;;;;;5084844;28;20055;-80
2023/07/14 09:00:17;;;;;;;4.22;1.00;;;;;;;;;;5084146;28;20044;-80
2023/07/14 09:03:04;;;;;;;3.38;1.27;;;;;;;;;;5074019;28;20040;-80
2023/07/14 09:05:31;;;;;;;2.10;0.90;;;;;;;;;;5055104;28;20048;-78
2023/07/14 09:07:58;;;;;;;2.97;1.20;;;;;;;;;;5075395;28;20062;-82
2023/07/14 09:10:39;;;;;;;2.60;0.88;;;;;;;;;;5075362;28;20056;-81
2023/07/14 09:13:25;;;;;;;4.13;1.13;;;;;;;;;;5079767;28;20044;-80
2023/07/14 09:15:52;;;;;;;2.25;1.20;;;;;;;;;;5055219;28;20045;-80
2023/07/14 09:18:27;;;;;;;4.88;1.00;;;;;;;;;;5054376;28;20045;-79
2023/07/14 09:21:00;;;;;;;3.53;1.25;;;;;;;;;;5055942;28;20049;-81
2023/07/14 09:23:44;;;;;;;2.47;1.10;;;;;;;;;;5058459;28;20108;-79
2023/07/14 09:26:24;;;;;;;2.35;1.00;;;;;;;;;;5053586;28;20041;-80
2023/07/14 09:28:51;;;;;;;2.70;1.10;;;;;;;;;;5056722;28;20048;-80
2023/07/14 09:31:40;;;;;;;3.63;1.23;;;;;;;;;;5060526;28;20061;-78
2023/07/14 09:34:16;;;;;;;5.22;1.35;;;;;;;;;;5056535;28;20048;-80
2023/07/14 09:36:43;;;;;;;2.10;1.08;;;;;;;;;;5056683;28;20044;-79
2023/07/14 09:39:14;;;;;;;3.00;1.20;;;;;;;;;;5056630;28;20055;-81
2023/07/14 09:41:40;;;;;;;3.00;1.30;;;;;;;;;;5059815;28;20306;-80
2023/07/14 09:44:09;;;;;;;6.13;1.40;;;;;;;;;;5058646;28;20041;-82
2023/07/14 09:46:44;;;;;;;2.78;1.30;;;;;;;;;;5056858;28;20052;-80
2023/07/14 09:49:12;;;;;;;;;;;;;;;;;;5056279;28;20069;-82
2023/07/14 09:51:39;;;;;;;3.17;1.27;;;;;;;;;;5056892;28;20007;-80
2023/07/14 09:54:12;;;;;;;3.13;1.23;;;;;;;;;;5055318;28;20056;-80
2023/07/14 09:56:42;;;;;;;3.97;1.60;;;;;;;;;;5063308;28;20049;-81
2023/07/14 09:59:17;;;;;;;2.53;1.33;;;;;;;;;;5055156;28;20094;-80
2023/07/14 10:01:54;;;;;;;3.53;1.67;;;;;;;;;;5052674;28;20037;-80
2023/07/14 10:04:25;;;;;;;3.70;1.42;;;;;;;;;;5050088;28;20056;-80
2023/07/14 10:06:52;;;;;;;5.40;1.50;;;;;;;;;;5051084;28;20529;-80
2023/07/14 10:09:22;;;;;;;3.72;1.15;;;;;;;;;;5051508;28;20124;-81
2023/07/14 10:11:50;;;;;;;2.90;1.38;;;;;;;;;;5052222;28;20069;-78
2023/07/14 10:14:17;;;;;;;5.57;1.50;;;;;;;;;;5049429;28;20081;-80
2023/07/14 10:16:44;;;;;;;3.22;1.45;;;;;;;;;;5054574;28;20037;-80
2023/07/14 10:19:13;;;;;;;2.58;1.30;;;;;;;;;;5054814;28;20052;-81
2023/07/14 10:21:49;;;;;;;2.40;1.60;;;;;;;;;;5058332;28;20067;-80
2023/07/14 10:24:17;;;;;;;1.88;1.20;;;;;;;;;;5056586;28;20052;-79
2023/07/14 10:27:10;;;;;;;3.22;1.80;;;;;;;;;;5056635;28;20068;-81
2023/07/14 10:29:49;;;;;;;3.03;2.13;;;;;;;;;;5050996;28;20139;-79
2023/07/14 10:32:43;;;;;;;3.70;1.77;;;;;;;;;;5055421;28;20049;-78
2023/07/14 10:35:17;;;;;;;3.38;1.70;;;;;;;;;;5055209;28;20041;-80
2023/07/14 10:37:48;;;;;;;3.40;1.25;;;;;;;;;;5058565;28;20071;-81
2023/07/14 10:40:17;;;;;;;3.15;1.50;;;;;;;;;;5075368;28;20037;-80
2023/07/14 10:42:50;;;;;;;4.70;1.50;;;;;;;;;;5077771;28;20068;-81
2023/07/14 10:45:17;;;;;;;3.10;1.23;;;;;;;;;;5076160;28;20044;-79
2023/07/14 10:47:51;;;;;;;4.13;1.67;;;;;;;;;;5074506;28;20521;-79
2023/07/14 10:50:36;;;;;;;3.03;1.63;;;;;;;;;;5075461;28;20485;-80
2023/07/14 10:53:08;;;;;;;4.37;1.50;;;;;;;;;;5078443;28;20094;-79
2023/07/14 10:55:36;;;;;;;2.25;1.50;;;;;;;;;;5073117;28;20048;-80
2023/07/14 10:58:09;;;;;;;3.50;1.88;;;;;;;;;;5079939;28;20064;-80
2023/07/14 11:00:40;;;;;;;3.40;1.60;;;;;;;;;;5076734;28;20059;-78
2023/07/14 11:03:07;;;;;;;5.03;1.70;;;;;;;;;;5078272;28;20048;-80
2023/07/14 11:05:35;;;;;;;3.53;1.80;;;;;;;;;;5060908;28;20075;-78
2023/07/14 11:08:01;;;;;;;4.40;1.70;;;;;;;;;;5078316;28;20115;-80
2023/07/14 11:10:29;;;;;;;2.65;1.88;;;;;;;;;;5078272;28;20121;-81
2023/07/14 11:13:04;;;;;;;5.80;1.95;;;;;;;;;;5079708;28;20064;-80
2023/07/14 11:15:41;;;;;;;2.50;1.95;;;;;;;;;;5080255;28;20064;-80
2023/07/14 11:18:07;;;;;;;3.70;1.70;;;;;;;;;;5080247;28;20167;-81
2023/07/14 11:20:41;;;;;;;3.05;1.63;;;;;;;;;;5083373;28;20054;-81
2023/07/14 11:23:11;;;;;;;2.83;1.70;;;;;;;;;;5087266;28;20044;-80
2023/07/14 11:25:59;;;;;;;4.78;2.10;;;;;;;;;;5081042;28;20455;-80
2023/07/14 11:28:52;;;;;;;3.13;1.70;;;;;;;;;;5078585;28;20048;-80
2023/07/14 11:31:21;;;;;;;2.80;1.60;;;;;;;;;;5052962;28;20506;-82
2023/07/14 11:33:51;;;;;;;2.90;1.70;;;;;;;;;;5077508;28;20044;-82
2023/07/14 11:36:23;;;;;;;2.25;1.52;;;;;;;;;;5078188;28;20060;-80
2023/07/14 11:39:02;;;;;;;2.25;1.70;;;;;;;;;;5064531;28;20049;-80
2023/07/14 11:41:29;;;;;;;3.45;1.60;;;;;;;;;;5055845;28;20060;-80
2023/07/14 11:43:55;;;;;;;2.30;1.58;;;;;;;;;;5058160;28;20533;-81
2023/07/14 11:46:24;;;;;;;2.50;1.60;;;;;;;;;;5057237;28;20053;-76
2023/07/14 11:48:54;;;;;;;3.28;1.80;;;;;;;;;;5057716;28;20386;-80
2023/07/14 11:51:40;;;;;;;3.35;1.80;;;;;;;;;;5059084;28;20052;-80
2023/07/14 11:54:13;;;;;;;2.75;1.70;;;;;;;;;;5055810;28;20067;-80
2023/07/14 11:56:40;;;;;;;2.90;1.65;;;;;;;;;;5056838;28;20053;-80
2023/07/14 11:59:36;;;;;;;2.25;1.63;;;;;;;;;;5040268;28;20049;-79
2023/07/14 12:02:25;;;;;;;3.47;1.80;;;;;;;;;;5050515;28;20041;-81
2023/07/14 12:05:17;;;;;;;4.10;1.75;;;;;;;;;;5059352;28;20037;-82
2023/07/14 12:08:10;;;;;;;5.45;2.33;;;;;;;;;;5035763;28;20099;-80
2023/07/14 12:10:37;;;;;;;3.22;2.47;;;;;;;;;;5052481;28;20041;-78
2023/07/14 12:13:16;;;;;;;5.13;2.58;;;;;;;;;;5059253;28;20041;-79
2023/07/14 12:15:46;;;;;;;4.35;3.00;;;;;;;;;;5057436;28;20065;-78
2023/07/14 12:18:21;;;;;;;5.75;2.65;;;;;;;;;;5056541;28;20076;-79
2023/07/14 12:20:49;;;;;;;6.25;2.83;;;;;;;;;;5057279;28;20044;-81
2023/07/14 12:23:27;;;;;;;5.15;3.35;;;;;;;;;;5058589;28;20037;-80
2023/07/14 12:26:23;;;;;;;5.10;2.92;;;;;;;;;;5059320;28;20071;-81
2023/07/14 12:28:50;;;;;;;8.82;2.90;;;;;;;;;;4984168;28;20187;-80
2023/07/14 12:31:18;;;;;;;3.70;2.45;;;;;;;;;;5051189;28;20049;-79
2023/07/14 12:33:46;;;;;;;4.53;2.70;;;;;;;;;;5047281;28;20324;-79
2023/07/14 12:36:18;;;;;;;3.80;2.50;;;;;;;;;;5049684;28;20194;-81
2023/07/14 12:38:45;;;;;;;3.97;2.50;;;;;;;;;;5062232;28;20545;-80
2023/07/14 12:41:14;;;;;;;3.55;2.70;;;;;;;;;;5067768;28;20119;-80
2023/07/14 12:43:46;;;;;;;5.28;3.15;;;;;;;;;;5071606;28;20056;-82
2023/07/14 12:46:18;;;;;;;4.10;2.20;;;;;;;;;;5071489;28;20044;-78
2023/07/14 12:48:46;;;;;;;3.47;2.47;;;;;;;;;;5072221;28;20479;-78
2023/07/14 12:51:19;;;;;;;3.92;1.92;;;;;;;;;;5070870;28;20041;-79
2023/07/14 12:54:06;;;;;;;3.33;2.13;;;;;;;;;;5070249;28;20040;-81
2023/07/14 12:56:33;;;;;;;3.33;2.13;;;;;;;;;;5070711;28;20158;-80
2023/07/14 12:59:01;;;;;;;3.80;2.50;;;;;;;;;;5073411;28;20056;-79
2023/07/14 13:01:28;;;;;;;2.70;1.85;;;;;;;;;;5070222;28;20171;-81
2023/07/14 13:03:55;;;;;;;4.57;2.20;;;;;;;;;;5069764;28;20516;-80
2023/07/14 13:06:23;;;;;;;3.55;2.20;;;;;;;;;;5071628;28;20052;-79
2023/07/14 13:08:50;;;;;;;3.22;1.65;;;;;;;;;;5073052;28;20130;-79
2023/07/14 13:11:19;;;;;;;3.05;2.10;;;;;;;;;;5070603;28;20048;-80
2023/07/14 13:13:50;;;;;;;3.55;2.10;;;;;;;;;;5072665;28;20040;-84
2023/07/14 13:16:17;;;;;;;7.15;2.60;;;;;;;;;;5074087;28;20044;-79
2023/07/14 13:18:53;;;;;;;3.88;2.30;;;;;;;;;;5074446;28;20555;-82
2023/07/14 13:21:35;;;;;;;3.83;2.25;;;;;;;;;;5075404;28;20068;-79
2023/07/14 13:24:15;;;;;;;2.58;1.73;;;;;;;;;;5073428;28;20064;-80
2023/07/14 13:26:51;;;;;;;3.08;2.20;;;;;;;;;;5071197;28;20040;-81
2023/07/14 13:29:31;;;;;;;2.60;1.85;;;;;;;;;;5063587;28;20051;-79
2023/07/14 13:31:59;;;;;;;2.70;2.00;;;;;;;;;;5054634;28;20494;-79
2023/07/14 13:34:30;;;;;;;4.75;2.30;;;;;;;;;;5054271;28;20513;-79
2023/07/14 13:37:00;;;;;;;3.72;2.03;;;;;;;;;;5054897;28;20052;-80
2023/07/14 13:39:29;;;;;;;3.80;2.30;;;;;;;;;;5071878;28;20048;-78
2023/07/14 13:41:57;;;;;;;3.63;2.17;;;;;;;;;;5074317;28;20048;-81
2023/07/14 13:44:26;;;;;;;4.13;2.08;;;;;;;;;;5077684;28;20044;-77
2023/07/14 13:46:53;;;;;;;3.53;2.40;;;;;;;;;;5078028;28;20048;-80
2023/07/14 13:49:20;;;;;;;2.38;1.90;;;;;;;;;;5075706;28;20047;-79
2023/07/14 13:51:47;;;;;;;2.30;1.98;;;;;;;;;;5073965;28;20059;-79
2023/07/14 13:54:15;;;;;;;2.95;2.03;;;;;;;;;;5075977;28;20040;-79
2023/07/14 13:56:42;;;;;;;3.08;1.90;;;;;;;;;;5074887;28;20052;-79
2023/07/14 13:59:18;;;;;;;2.85;1.83;;;;;;;;;;5071265;28;20049;-80
2023/07/14 14:01:46;;;;;;;3.88;1.80;;;;;;;;;;5075094;28;20049;-78
2023/07/14 14:04:13;;;;;;;4.15;2.10;;;;;;;;;;5075516;28;20033;-82
2023/07/14 14:06:41;;;;;;;2.72;1.90;;;;;;;;;;5076662;28;20075;-79
2023/07/14 14:09:19;;;;;;;3.10;1.90;;;;;;;;;;5075929;28;20044;-78
2023/07/14 14:11:48;;;;;;;4.28;1.80;;;;;;;;;;5073781;28;20044;-78
2023/07/14 14:14:15;;;;;;;3.58;1.90;;;;;;;;;;5077345;28;20055;-80
2023/07/14 14:16:43;;;;;;;2.58;1.70;;;;;;;;;;5079654;28;20279;-80
2023/07/14 14:19:16;;;;;;;2.60;1.77;;;;;;;;;;5071557;28;20060;-79
2023/07/14 14:21:42;;;;;;;2.92;1.88;;;;;;;;;;5068424;28;20055;-80
2023/07/14 14:24:12;;;;;;;3.15;2.25;;;;;;;;;;5071062;28;20056;-81
2023/07/14 14:26:38;;;;;;;3.28;1.90;;;;;;;;;;5056758;28;20102;-79
2023/07/14 14:29:05;;;;;;;2.92;1.88;;;;;;;;;;5076534;28;20502;-79
2023/07/14 14:31:32;;;;;;;3.72;2.17;;;;;;;;;;5077586;28;20045;-77
2023/07/14 14:33:59;;;;;;;4.35;2.20;;;;;;;;;;5075820;28;20040;-78
2023/07/14 14:36:26;;;;;;;3.88;2.10;;;;;;;;;;5078476;28;20082;-80
2023/07/14 14:38:52;;;;;;;2.75;1.83;;;;;;;;;;5068902;28;20041;-80
2023/07/14 14:41:22;;;;;;;2.78;1.67;;;;;;;;;;5064104;28;20041;-79
2023/07/14 14:43:49;;;;;;;3.20;1.80;;;;;;;;;;5062962;28;20055;-79
2023/07/14 14:46:16;;;;;;;3.08;1.77;;;;;;;;;;5060608;28;20097;-79
2023/07/14 14:48:43;;;;;;;4.55;1.90;;;;;;;;;;5058155;28;20049;-79
2023/07/14 14:51:13;;;;;;;2.72;2.20;;;;;;;;;;5057855;28;20168;-80
2023/07/14 14:53:40;;;;;;;2.15;1.80;;;;;;;;;;5038152;28;20042;-80
2023/07/14 14:56:13;;;;;;;2.60;1.90;;;;;;;;;;5037762;28;20051;-79
2023/07/14 14:58:41;;;;;;;3.20;2.15;;;;;;;;;;5060810;28;20045;-79